createdAt,value
2023-05-02T00:02:06.638Z,52.96
2023-05-02T00:04:34.804Z,52.88
2023-05-02T00:07:02.761Z,53.05
2023-05-02T00:09:32.038Z,52.94
2023-05-02T00:11:59.971Z,53.14
2023-05-02T00:14:27.822Z,53.31
2023-05-02T00:16:55.775Z,53.28
2023-05-02T00:19:23.682Z,53.06
2023-05-02T00:21:51.739Z,53.21
2023-05-02T00:24:19.702Z,53.41
2023-05-02T00:26:48.962Z,53.20
2023-05-02T00:29:17.310Z,53.19
2023-05-02T00:31:45.168Z,53.08
2023-05-02T00:34:13.089Z,53.38
2023-05-02T00:36:41.148Z,53.35
2023-05-02T00:39:09.834Z,53.02
2023-05-02T00:41:37.768Z,53.14
2023-05-02T00:44:07.236Z,52.97
2023-05-02T00:46:35.222Z,53.00
2023-05-02T00:49:03.181Z,53.06
2023-05-02T00:51:31.116Z,53.16
2023-05-02T00:53:59.019Z,53.25
2023-05-02T00:56:26.900Z,53.27
2023-05-02T00:58:54.827Z,53.32
2023-05-02T01:01:31.005Z,53.30
2023-05-02T01:04:05.901Z,53.47
2023-05-02T01:06:42.226Z,53.08
2023-05-02T01:09:18.594Z,53.17
2023-05-02T01:11:51.225Z,53.38
2023-05-02T01:14:19.139Z,53.31
2023-05-02T01:16:48.406Z,53.18
2023-05-02T01:19:22.565Z,53.37
2023-05-02T01:21:50.435Z,53.29
2023-05-02T01:24:21.531Z,53.68
2023-05-02T01:27:02.669Z,53.69
2023-05-02T01:29:32.081Z,53.71
2023-05-02T01:32:00.071Z,53.74
2023-05-02T01:34:28.147Z,53.38
2023-05-02T01:36:56.015Z,53.40
2023-05-02T01:39:24.225Z,53.39
2023-05-02T01:41:53.488Z,53.30
2023-05-02T01:44:21.543Z,53.21
2023-05-02T01:46:50.849Z,53.18
2023-05-02T01:49:18.765Z,53.25
2023-05-02T01:51:48.242Z,53.30
2023-05-02T01:54:17.150Z,53.33
2023-05-02T01:56:45.616Z,53.49
2023-05-02T01:59:15.368Z,53.45
2023-05-02T02:01:43.632Z,53.28
2023-05-02T02:04:14.169Z,53.48
2023-05-02T02:06:43.523Z,53.34
2023-05-02T02:09:11.548Z,53.41
2023-05-02T02:11:43.998Z,53.47
2023-05-02T02:14:16.078Z,53.61
2023-05-02T02:16:43.996Z,53.55
2023-05-02T02:19:15.467Z,53.56
2023-05-02T02:21:44.248Z,53.53
2023-05-02T02:24:12.117Z,53.48
2023-05-02T02:26:40.022Z,53.67
2023-05-02T02:29:07.898Z,53.58
2023-05-02T02:31:36.117Z,53.75
2023-05-02T02:34:04.251Z,53.56
2023-05-02T02:36:35.452Z,53.58
2023-05-02T02:39:14.949Z,53.43
2023-05-02T02:41:45.948Z,53.66
2023-05-02T02:44:21.508Z,53.53
2023-05-02T02:46:51.754Z,53.65
2023-05-02T02:49:24.986Z,53.50
2023-05-02T02:51:59.652Z,53.53
2023-05-02T02:54:32.133Z,53.66
2023-05-02T02:57:02.868Z,53.78
2023-05-02T02:59:32.800Z,53.57
2023-05-02T03:02:03.681Z,53.72
2023-05-02T03:04:32.391Z,53.46
2023-05-02T03:07:01.728Z,53.53
2023-05-02T03:09:33.619Z,53.47
2023-05-02T03:12:01.534Z,53.52
2023-05-02T03:14:29.391Z,53.71
2023-05-02T03:16:57.280Z,53.59
2023-05-02T03:19:25.180Z,53.57
2023-05-02T03:21:53.056Z,53.68
2023-05-02T03:24:22.320Z,53.53
2023-05-02T03:26:50.222Z,53.56
2023-05-02T03:29:18.077Z,53.78
2023-05-02T03:31:46.069Z,53.66
2023-05-02T03:34:14.027Z,53.80
2023-05-02T03:36:41.903Z,53.81
2023-05-02T03:39:09.780Z,53.81
2023-05-02T03:41:39.018Z,53.99
2023-05-02T03:44:06.861Z,53.83
2023-05-02T03:46:34.845Z,54.12
2023-05-02T03:49:02.811Z,53.87
2023-05-02T03:51:30.650Z,54.03
2023-05-02T03:53:58.541Z,53.92
2023-05-02T03:56:26.480Z,54.04
2023-05-02T03:58:55.744Z,53.95
2023-05-02T04:01:23.705Z,54.01
2023-05-02T04:03:51.726Z,53.87
2023-05-02T04:06:19.641Z,53.91
2023-05-02T04:08:47.533Z,53.86
2023-05-02T04:11:15.706Z,53.98
2023-05-02T04:13:43.532Z,54.02
2023-05-02T04:16:13.012Z,53.87
2023-05-02T04:18:41.269Z,53.78
2023-05-02T04:21:09.841Z,53.79
2023-05-02T04:23:37.788Z,54.05
2023-05-02T04:26:05.989Z,54.05
2023-05-02T04:28:33.939Z,54.19
2023-05-02T04:31:03.299Z,54.09
2023-05-02T04:33:32.695Z,54.30
2023-05-02T04:36:01.220Z,54.13
2023-05-02T04:38:29.126Z,54.15
2023-05-02T04:40:57.078Z,54.10
2023-05-02T04:43:25.059Z,54.34
2023-05-02T04:45:53.053Z,54.37
2023-05-02T04:48:21.723Z,54.28
2023-05-02T04:50:51.029Z,54.41
2023-05-02T04:53:19.024Z,54.53
2023-05-02T04:55:46.909Z,54.47
2023-05-02T04:58:14.766Z,54.35
2023-05-02T05:00:42.647Z,54.66
2023-05-02T05:03:10.762Z,54.46
2023-05-02T05:05:38.931Z,54.52
2023-05-02T05:08:08.873Z,54.71
2023-05-02T05:10:36.823Z,54.57
2023-05-02T05:13:05.437Z,54.60
2023-05-02T05:15:33.344Z,54.64
2023-05-02T05:18:01.324Z,54.58
2023-05-02T05:20:29.196Z,54.29
2023-05-02T05:22:57.199Z,54.35
2023-05-02T05:25:27.013Z,54.28
2023-05-02T05:27:55.852Z,54.24
2023-05-02T05:30:23.768Z,54.31
2023-05-02T05:32:51.776Z,54.34
2023-05-02T05:35:19.740Z,54.16
2023-05-02T05:37:47.651Z,54.16
2023-05-02T05:40:16.860Z,54.32
2023-05-02T05:42:46.135Z,54.10
2023-05-02T05:45:14.912Z,54.25
2023-05-02T05:47:42.884Z,54.24
2023-05-02T05:50:11.340Z,54.12
2023-05-02T05:52:39.265Z,54.08
2023-05-02T05:55:08.311Z,54.30
2023-05-02T05:57:36.410Z,54.15
2023-05-02T06:00:07.410Z,53.99
2023-05-02T06:02:35.491Z,53.86
2023-05-02T06:05:03.657Z,53.75
2023-05-02T06:07:31.743Z,53.98
2023-05-02T06:09:59.967Z,53.83
2023-05-02T06:12:28.199Z,54.13
2023-05-02T06:14:56.098Z,54.03
2023-05-02T06:17:26.577Z,53.75
2023-05-02T06:19:54.767Z,54.14
2023-05-02T06:22:22.676Z,54.08
2023-05-02T06:24:50.548Z,53.84
2023-05-02T06:27:18.514Z,53.94
2023-05-02T06:29:46.426Z,54.22
2023-05-02T06:32:14.354Z,54.24
2023-05-02T06:34:43.728Z,54.04
2023-05-02T06:37:12.101Z,54.09
2023-05-02T06:39:40.054Z,53.97
2023-05-02T06:42:07.922Z,53.74
2023-05-02T06:44:35.848Z,53.75
2023-05-02T06:47:05.503Z,53.82
2023-05-02T06:49:33.552Z,53.73
2023-05-02T06:52:02.784Z,53.72
2023-05-02T06:54:30.655Z,54.03
2023-05-02T06:56:59.013Z,53.83
2023-05-02T06:59:26.974Z,53.43
2023-05-02T07:01:54.880Z,53.32
2023-05-02T07:04:22.993Z,53.34
2023-05-02T07:06:51.176Z,53.33
2023-05-02T07:09:20.452Z,53.08
2023-05-02T07:11:49.251Z,53.07
2023-05-02T07:14:17.120Z,52.88
2023-05-02T07:16:45.226Z,52.91
2023-05-02T07:19:13.204Z,53.07
2023-05-02T07:21:41.333Z,53.34
2023-05-02T07:24:09.225Z,53.03
2023-05-02T07:26:38.565Z,53.24
2023-05-02T07:29:07.143Z,53.40
2023-05-02T07:31:35.109Z,53.50
2023-05-02T07:34:03.016Z,53.15
2023-05-02T07:36:32.637Z,53.17
2023-05-02T07:39:00.975Z,53.16
2023-05-02T07:41:28.988Z,53.35
2023-05-02T07:43:58.416Z,53.24
2023-05-02T07:46:26.816Z,53.34
2023-05-02T07:48:54.991Z,53.07
2023-05-02T07:51:23.015Z,52.77
2023-05-02T07:53:53.141Z,52.95
2023-05-02T07:56:21.320Z,52.66
2023-05-02T07:58:50.111Z,52.68
2023-05-02T08:01:19.369Z,52.68
2023-05-02T08:03:47.777Z,52.83
2023-05-02T08:06:15.742Z,52.83
2023-05-02T08:08:43.716Z,53.29
2023-05-02T08:11:11.674Z,53.11
2023-05-02T08:13:40.002Z,52.99
2023-05-02T08:16:09.151Z,52.89
2023-05-02T08:18:38.555Z,52.60
2023-05-02T08:21:06.774Z,52.72
2023-05-02T08:23:34.860Z,52.63
2023-05-02T08:26:02.879Z,52.92
2023-05-02T08:28:31.124Z,52.91
2023-05-02T08:30:59.192Z,52.48
2023-05-02T08:33:27.430Z,52.50
2023-05-02T08:35:56.797Z,52.03
2023-05-02T08:38:24.772Z,52.26
2023-05-02T08:40:52.722Z,51.95
2023-05-02T08:43:20.863Z,51.95
2023-05-02T08:45:48.810Z,52.04
2023-05-02T08:48:17.404Z,51.93
2023-05-02T08:50:48.320Z,51.63
2023-05-02T08:53:17.766Z,51.44
2023-05-02T08:55:46.181Z,51.56
2023-05-02T08:58:15.529Z,51.34
2023-05-02T09:00:44.919Z,51.07
2023-05-02T09:03:17.963Z,51.12
2023-05-02T09:05:45.827Z,51.11
2023-05-02T09:08:13.780Z,51.13
2023-05-02T09:10:43.168Z,50.99
2023-05-02T09:13:30.254Z,50.87
2023-05-02T09:16:03.614Z,51.19
2023-05-02T09:18:32.432Z,50.73
2023-05-02T09:21:01.212Z,50.57
2023-05-02T09:23:36.087Z,50.31
2023-05-02T09:26:17.960Z,49.89
2023-05-02T09:28:46.596Z,49.48
2023-05-02T09:31:22.926Z,49.20
2023-05-02T09:34:00.100Z,49.06
2023-05-02T09:36:27.963Z,48.51
2023-05-02T09:38:56.346Z,48.50
2023-05-02T09:41:25.608Z,48.24
2023-05-02T09:43:56.561Z,48.13
2023-05-02T09:46:24.471Z,47.85
2023-05-02T09:48:56.284Z,47.89
2023-05-02T09:51:24.763Z,47.94
2023-05-02T09:53:52.685Z,47.94
2023-05-02T09:56:22.141Z,47.27
2023-05-02T09:58:52.306Z,47.04
2023-05-02T10:01:20.611Z,46.67
2023-05-02T10:03:49.150Z,46.37
2023-05-02T10:06:17.690Z,46.48
2023-05-02T10:08:47.558Z,46.28
2023-05-02T10:11:15.546Z,46.09
2023-05-02T10:13:43.475Z,45.96
2023-05-02T10:16:13.794Z,45.37
2023-05-02T10:18:43.847Z,45.12
2023-05-02T10:21:12.906Z,45.02
2023-05-02T10:23:43.426Z,45.09
2023-05-02T10:26:12.177Z,44.96
2023-05-02T10:28:40.152Z,44.30
2023-05-02T10:31:08.117Z,44.15
2023-05-02T10:33:37.472Z,44.03
2023-05-02T10:36:06.156Z,43.43
2023-05-02T10:38:34.130Z,43.66
2023-05-02T10:41:03.099Z,43.55
2023-05-02T10:43:33.344Z,43.52
2023-05-02T10:46:03.409Z,42.63
2023-05-02T10:48:31.301Z,42.57
2023-05-02T10:51:02.376Z,42.46
2023-05-02T10:53:34.758Z,41.67
2023-05-02T10:56:18.719Z,40.61
2023-05-02T10:58:47.184Z,40.82
2023-05-02T11:01:38.173Z,40.47
2023-05-02T11:04:07.204Z,40.37
2023-05-02T11:06:36.966Z,40.39
2023-05-02T11:09:34.250Z,39.92
2023-05-02T11:12:04.895Z,39.85
2023-05-02T11:14:49.684Z,40.03
2023-05-02T11:17:21.147Z,40.89
2023-05-02T11:20:26.560Z,40.95
2023-05-02T11:22:56.640Z,40.73
2023-05-02T11:25:40.210Z,41.65
2023-05-02T11:28:09.461Z,41.81
2023-05-02T11:30:44.783Z,41.10
2023-05-02T11:33:17.598Z,40.97
2023-05-02T11:35:46.834Z,39.92
2023-05-02T11:38:20.560Z,39.52
2023-05-02T11:41:00.868Z,38.71
2023-05-02T11:43:31.578Z,39.87
2023-05-02T11:46:02.171Z,40.73
2023-05-02T11:48:30.489Z,40.29
2023-05-02T11:50:59.016Z,39.82
2023-05-02T11:53:29.460Z,39.01
2023-05-02T11:55:58.299Z,37.92
2023-05-02T11:58:27.037Z,37.55
2023-05-02T12:00:54.993Z,36.34
2023-05-02T12:03:24.191Z,35.49
2023-05-02T12:05:52.651Z,35.20
2023-05-02T12:08:24.875Z,35.24
2023-05-02T12:10:56.544Z,34.51
2023-05-02T12:13:25.082Z,34.95
2023-05-02T12:15:53.403Z,34.87
2023-05-02T12:18:23.511Z,35.04
2023-05-02T12:20:52.263Z,35.25
2023-05-02T12:23:20.958Z,36.16
2023-05-02T12:25:49.551Z,35.35
2023-05-02T12:28:20.531Z,34.16
2023-05-02T12:30:49.592Z,34.35
2023-05-02T12:33:17.923Z,34.06
2023-05-02T12:35:47.430Z,33.61
2023-05-02T12:38:16.701Z,33.63
2023-05-02T12:40:52.138Z,33.95
2023-05-02T12:43:22.029Z,34.45
2023-05-02T12:45:50.061Z,34.83
2023-05-02T12:48:22.170Z,33.04
2023-05-02T12:50:50.235Z,33.12
2023-05-02T12:53:18.129Z,32.98
2023-05-02T12:55:46.932Z,33.46
2023-05-02T12:58:14.835Z,33.17
2023-05-02T13:00:45.733Z,32.89
2023-05-02T13:03:15.684Z,33.08
2023-05-02T13:05:43.613Z,32.70
2023-05-02T13:08:11.570Z,32.69
2023-05-02T13:10:39.491Z,33.95
2023-05-02T13:13:07.825Z,33.37
2023-05-02T13:15:35.704Z,33.75
2023-05-02T13:18:05.240Z,32.64
2023-05-02T13:20:33.245Z,32.21
2023-05-02T13:23:01.151Z,32.24
2023-05-02T13:25:29.070Z,31.88
2023-05-02T13:27:57.093Z,32.37
2023-05-02T13:30:25.028Z,32.82
2023-05-02T13:32:52.964Z,32.22
2023-05-02T13:35:22.244Z,31.89
2023-05-02T13:37:50.176Z,31.45
2023-05-02T13:40:18.166Z,31.29
2023-05-02T13:42:46.076Z,31.21
2023-05-02T13:45:14.614Z,29.63
2023-05-02T13:47:42.529Z,29.85
2023-05-02T13:50:10.621Z,29.82
2023-05-02T13:52:39.852Z,29.51
2023-05-02T13:55:08.265Z,29.32
2023-05-02T13:57:36.178Z,28.86
2023-05-02T14:00:04.775Z,29.42
2023-05-02T14:02:32.911Z,29.83
2023-05-02T14:05:00.943Z,29.59
2023-05-02T14:07:29.479Z,29.51
2023-05-02T14:09:58.904Z,29.20
2023-05-02T14:12:26.976Z,29.40
2023-05-02T14:14:54.873Z,29.09
2023-05-02T14:17:25.385Z,29.11
2023-05-02T14:19:53.371Z,28.33
2023-05-02T14:22:22.483Z,28.58
2023-05-02T14:24:50.416Z,28.35
2023-05-02T14:27:19.711Z,28.43
2023-05-02T14:29:47.707Z,28.54
2023-05-02T14:32:15.816Z,28.85
2023-05-02T14:34:43.895Z,29.93
2023-05-02T14:37:11.933Z,29.42
2023-05-02T14:39:40.442Z,29.24
2023-05-02T14:42:08.441Z,29.06
2023-05-02T14:44:37.879Z,29.00
2023-05-02T14:47:05.921Z,28.45
2023-05-02T14:49:33.885Z,28.52
2023-05-02T14:52:01.721Z,28.07
2023-05-02T14:54:30.308Z,28.12
2023-05-02T14:56:59.645Z,28.39
2023-05-02T14:59:29.713Z,28.45
2023-05-02T15:01:59.010Z,28.56
2023-05-02T15:04:27.942Z,29.35
2023-05-02T15:06:57.155Z,29.40
2023-05-02T15:09:26.627Z,29.67
2023-05-02T15:11:54.643Z,29.51
2023-05-02T15:14:22.517Z,29.71
2023-05-02T15:16:50.861Z,29.34
2023-05-02T15:19:20.322Z,29.31
2023-05-02T15:21:49.829Z,29.76
2023-05-02T15:24:17.736Z,29.45
2023-05-02T15:26:45.707Z,28.75
2023-05-02T15:29:13.546Z,28.79
2023-05-02T15:31:41.477Z,28.75
2023-05-02T15:34:09.593Z,28.49
2023-05-02T15:36:38.857Z,28.69
2023-05-02T15:39:06.782Z,28.26
2023-05-02T15:41:34.722Z,28.83
2023-05-02T15:44:02.600Z,28.64
2023-05-02T15:46:30.497Z,29.31
2023-05-02T15:48:58.406Z,29.23
2023-05-02T15:51:26.913Z,29.28
2023-05-02T15:53:56.576Z,29.26
2023-05-02T15:56:24.459Z,29.06
2023-05-02T15:58:52.341Z,29.09
2023-05-02T16:01:24.169Z,28.83
2023-05-02T16:03:52.203Z,29.34
2023-05-02T16:06:20.188Z,29.23
2023-05-02T16:08:48.096Z,28.89
2023-05-02T16:11:17.489Z,28.91
2023-05-02T16:13:45.370Z,28.69
2023-05-02T16:16:13.234Z,29.43
2023-05-02T16:18:41.220Z,29.73
2023-05-02T16:21:09.274Z,29.82
2023-05-02T16:23:37.164Z,30.02
2023-05-02T16:26:05.117Z,30.03
2023-05-02T16:28:34.385Z,30.52
2023-05-02T16:31:07.580Z,30.13
2023-05-02T16:33:35.614Z,29.92
2023-05-02T16:36:03.871Z,30.19
2023-05-02T16:38:31.807Z,30.64
2023-05-02T16:40:59.697Z,31.39
2023-05-02T16:43:27.579Z,31.49
2023-05-02T16:46:03.346Z,31.32
2023-05-02T16:48:31.296Z,31.61
2023-05-02T16:51:00.985Z,31.29
2023-05-02T16:53:30.598Z,31.62
2023-05-02T16:55:59.549Z,31.83
2023-05-02T16:58:29.206Z,31.93
2023-05-02T17:00:57.251Z,32.61
2023-05-02T17:03:26.864Z,32.34
2023-05-02T17:05:54.970Z,32.54
2023-05-02T17:08:22.870Z,32.72
2023-05-02T17:10:51.510Z,32.34
2023-05-02T17:13:19.545Z,32.31
2023-05-02T17:15:47.516Z,32.23
2023-05-02T17:18:15.704Z,32.00
2023-05-02T17:20:46.013Z,31.46
2023-05-02T17:23:14.618Z,31.78
2023-05-02T17:25:42.796Z,32.26
2023-05-02T17:28:10.714Z,32.56
2023-05-02T17:30:38.626Z,32.53
2023-05-02T17:33:06.824Z,32.55
2023-05-02T17:35:34.770Z,32.54
2023-05-02T17:38:04.029Z,33.51
2023-05-02T17:40:32.018Z,34.27
2023-05-02T17:43:01.674Z,34.76
2023-05-02T17:45:29.962Z,35.71
2023-05-02T17:47:57.987Z,36.03
2023-05-02T17:50:26.213Z,36.47
2023-05-02T17:52:54.440Z,36.98
2023-05-02T17:55:23.702Z,37.25
2023-05-02T17:57:51.618Z,37.55
2023-05-02T18:00:20.102Z,38.09
2023-05-02T18:02:48.081Z,38.48
2023-05-02T18:05:17.511Z,39.00
2023-05-02T18:07:45.491Z,39.24
2023-05-02T18:10:13.441Z,39.32
2023-05-02T18:12:42.692Z,39.76
2023-05-02T18:15:10.849Z,39.95
2023-05-02T18:17:38.871Z,40.01
2023-05-02T18:20:10.109Z,40.32
2023-05-02T18:22:38.191Z,40.38
2023-05-02T18:25:06.897Z,40.53
2023-05-02T18:27:35.026Z,40.62
2023-05-02T18:30:04.607Z,40.78
2023-05-02T18:32:34.538Z,41.15
2023-05-02T18:35:02.804Z,41.31
2023-05-02T18:37:31.998Z,41.79
2023-05-02T18:39:59.884Z,41.72
2023-05-02T18:42:27.869Z,41.78
2023-05-02T18:44:55.779Z,42.50
2023-05-02T18:47:25.534Z,42.62
2023-05-02T18:49:56.353Z,43.04
2023-05-02T18:52:25.477Z,43.06
2023-05-02T18:54:53.375Z,43.16
2023-05-02T18:57:21.622Z,43.70
2023-05-02T18:59:49.660Z,43.55
2023-05-02T19:02:17.533Z,44.14
2023-05-02T19:04:46.893Z,44.19
2023-05-02T19:07:14.754Z,44.54
2023-05-02T19:09:42.627Z,44.37
2023-05-02T19:12:10.657Z,44.58
2023-05-02T19:14:39.657Z,44.82
2023-05-02T19:17:07.728Z,44.41
2023-05-02T19:19:35.662Z,44.73
2023-05-02T19:22:05.090Z,45.00
2023-05-02T19:24:33.683Z,44.88
2023-05-02T19:27:01.638Z,45.06
2023-05-02T19:29:29.522Z,45.49
2023-05-02T19:31:57.602Z,45.60
2023-05-02T19:34:26.084Z,45.80
2023-05-02T19:36:53.970Z,46.07
2023-05-02T19:39:23.479Z,46.55
2023-05-02T19:41:51.368Z,46.44
2023-05-02T19:44:21.291Z,46.83
2023-05-02T19:46:49.139Z,47.07
2023-05-02T19:49:17.022Z,47.08
2023-05-02T19:51:45.133Z,47.08
2023-05-02T19:54:13.134Z,46.99
2023-05-02T19:56:43.168Z,47.12
2023-05-02T19:59:11.253Z,47.51
2023-05-02T20:01:39.197Z,47.21
2023-05-02T20:04:07.269Z,47.61
2023-05-02T20:06:35.287Z,47.66
2023-05-02T20:09:03.828Z,47.77
2023-05-02T20:11:32.854Z,48.01
2023-05-02T20:14:02.172Z,47.88
2023-05-02T20:16:31.442Z,47.90
2023-05-02T20:18:59.491Z,48.16
2023-05-02T20:21:27.915Z,48.10
2023-05-02T20:23:55.807Z,48.13
2023-05-02T20:26:23.747Z,48.82
2023-05-02T20:28:51.663Z,48.65
2023-05-02T20:31:21.054Z,49.04
2023-05-02T20:33:49.094Z,49.05
2023-05-02T20:36:18.148Z,48.95
2023-05-02T20:38:48.013Z,49.17
2023-05-02T20:41:15.934Z,49.37
2023-05-02T20:43:44.932Z,49.30
2023-05-02T20:46:13.620Z,49.19
2023-05-02T20:48:43.010Z,49.42
2023-05-02T20:51:10.984Z,49.85
2023-05-02T20:53:39.117Z,49.91
2023-05-02T20:56:07.353Z,50.19
2023-05-02T20:58:35.245Z,50.36
2023-05-02T21:01:03.425Z,50.46
2023-05-02T21:03:32.184Z,50.64
2023-05-02T21:06:01.535Z,50.85
2023-05-02T21:08:29.469Z,50.67
2023-05-02T21:10:57.382Z,50.64
2023-05-02T21:13:25.320Z,51.12
2023-05-02T21:15:53.326Z,50.98
2023-05-02T21:18:22.285Z,51.03
2023-05-02T21:20:50.191Z,51.34
2023-05-02T21:23:19.478Z,51.09
2023-05-02T21:25:47.405Z,51.37
2023-05-02T21:28:15.303Z,51.49
2023-05-02T21:30:43.195Z,51.38
2023-05-02T21:33:11.097Z,51.19
2023-05-02T21:35:39.039Z,51.32
2023-05-02T21:38:07.641Z,51.66
2023-05-02T21:40:38.093Z,51.66
2023-05-02T21:43:06.013Z,51.85
2023-05-02T21:45:34.784Z,51.81
2023-05-02T21:48:02.793Z,51.59
2023-05-02T21:50:30.704Z,51.80
2023-05-02T21:52:58.719Z,51.62
2023-05-02T21:55:26.780Z,51.87
2023-05-02T21:57:56.087Z,52.02
2023-05-02T22:00:24.277Z,52.09
2023-05-02T22:02:52.457Z,52.04
2023-05-02T22:05:21.602Z,52.07
2023-05-02T22:07:49.660Z,52.09
2023-05-02T22:10:17.914Z,52.27
2023-05-02T22:12:46.530Z,52.46
2023-05-02T22:15:16.291Z,52.24
2023-05-02T22:17:45.984Z,52.78
2023-05-02T22:20:14.313Z,52.94
2023-05-02T22:22:42.485Z,52.85
2023-05-02T22:25:10.893Z,52.79
2023-05-02T22:27:38.834Z,52.99
2023-05-02T22:30:08.345Z,52.96
2023-05-02T22:32:37.663Z,53.13
2023-05-02T22:35:06.879Z,53.35
2023-05-02T22:37:34.792Z,53.40
2023-05-02T22:40:03.016Z,53.38
2023-05-02T22:42:31.271Z,53.13
2023-05-02T22:44:59.181Z,53.21
2023-05-02T22:47:29.208Z,53.17
2023-05-02T22:49:59.887Z,52.86
2023-05-02T22:52:28.332Z,53.13
2023-05-02T22:54:56.201Z,53.04
2023-05-02T22:57:24.496Z,52.73
2023-05-02T22:59:52.374Z,52.82
2023-05-02T23:02:20.883Z,53.01
2023-05-02T23:04:48.853Z,52.78
2023-05-02T23:07:18.086Z,52.86
2023-05-02T23:09:45.991Z,52.87
2023-05-02T23:12:13.984Z,52.90
2023-05-02T23:14:41.939Z,53.25
2023-05-02T23:17:09.839Z,52.96
2023-05-02T23:19:37.948Z,53.33
2023-05-02T23:22:05.916Z,53.00
2023-05-02T23:24:35.229Z,53.30
2023-05-02T23:27:03.814Z,53.19
2023-05-02T23:29:31.691Z,53.01
2023-05-02T23:31:59.568Z,52.84
2023-05-02T23:34:27.572Z,53.15
2023-05-02T23:36:55.561Z,53.23
2023-05-02T23:39:23.787Z,53.23
2023-05-02T23:41:53.079Z,52.84
2023-05-02T23:44:20.927Z,52.87
2023-05-02T23:46:48.941Z,53.04
2023-05-02T23:49:17.176Z,53.04
2023-05-02T23:51:45.128Z,53.28
2023-05-02T23:54:13.004Z,52.86
2023-05-02T23:56:40.896Z,52.84
2023-05-02T23:59:10.114Z,53.33
